KELP

El Paso International Airport

El Paso, Texas, USA
METAR KELP 180151Z COR 32006KT 10SM FEW080 SCT250 33/11 A3010 RMK AO2 SLP114 CB DSNT SW T03280111
Observed Flight Rules
Aug-18 @ 01:51 UTC (38 minutes ago) Visual Flight Rules
Wind Visibility Clouds
320° at 6 knots 10 miles
  • Few at 8,000' AGL
  • Scattered at 25,000' AGL
Temperatures Readings
Current 33°C / 91°F
Dewpoint 11°C / 52°F
Humidity 26%
Altimeter 30.1" Hg
Pressure 1011.4 hPa
Elevation 1197
METAR KELP 180151Z COR 32006KT 10SM FEW080 SCT250 33/11 A3010 RMK AO2 SLP114 CB DSNT SW T03280111
Observed Flight Rules
Aug-18 @ 01:51 UTC
(38 minutes ago)
VFR
Wind Visibility
320° at 6 knots 10 miles
Clouds
  • Few at 8,000' AGL
  • Scattered at 25,000' AGL
Temperature Dewpoint
33°C / 91°F 11°C / 52°F
Humidity Altimeter Pressure
26% 30.1" Hg 1011.4 hPa